sensor_id;sensor_type;location;lat;lon;timestamp;P1;durP1;ratioP1;P2;durP2;ratioP2
4652;SDS011;9900;48.738;9.306;2023-05-07T00:00:37;7.80;;;4.00;;
4652;SDS011;9900;48.738;9.306;2023-05-07T00:03:06;9.00;;;4.50;;
4652;SDS011;9900;48.738;9.306;2023-05-07T00:05:35;7.60;;;5.50;;
4652;SDS011;9900;48.738;9.306;2023-05-07T00:08:06;9.03;;;5.03;;
4652;SDS011;9900;48.738;9.306;2023-05-07T00:10:34;7.40;;;5.07;;
4652;SDS011;9900;48.738;9.306;2023-05-07T00:13:03;7.03;;;4.70;;
4652;SDS011;9900;48.738;9.306;2023-05-07T00:15:32;8.27;;;5.27;;
4652;SDS011;9900;48.738;9.306;2023-05-07T00:18:00;9.87;;;5.57;;
4652;SDS011;9900;48.738;9.306;2023-05-07T00:20:29;10.57;;;5.30;;
4652;SDS011;9900;48.738;9.306;2023-05-07T00:23:00;6.87;;;5.03;;
4652;SDS011;9900;48.738;9.306;2023-05-07T00:25:30;9.93;;;5.47;;
4652;SDS011;9900;48.738;9.306;2023-05-07T00:27:59;10.83;;;6.47;;
4652;SDS011;9900;48.738;9.306;2023-05-07T00:30:30;6.43;;;4.90;;
4652;SDS011;9900;48.738;9.306;2023-05-07T00:32:59;10.83;;;5.30;;
4652;SDS011;9900;48.738;9.306;2023-05-07T00:35:28;7.43;;;5.57;;
4652;SDS011;9900;48.738;9.306;2023-05-07T00:37:57;7.47;;;5.17;;
4652;SDS011;9900;48.738;9.306;2023-05-07T00:40:25;6.83;;;4.60;;
4652;SDS011;9900;48.738;9.306;2023-05-07T00:42:55;7.43;;;5.00;;
4652;SDS011;9900;48.738;9.306;2023-05-07T00:45:25;6.67;;;4.93;;
4652;SDS011;9900;48.738;9.306;2023-05-07T00:47:56;5.37;;;4.30;;
4652;SDS011;9900;48.738;9.306;2023-05-07T00:50:26;6.53;;;5.00;;
4652;SDS011;9900;48.738;9.306;2023-05-07T00:52:55;7.50;;;4.53;;
4652;SDS011;9900;48.738;9.306;2023-05-07T00:55:24;6.00;;;4.17;;
4652;SDS011;9900;48.738;9.306;2023-05-07T00:57:52;9.43;;;4.57;;
4652;SDS011;9900;48.738;9.306;2023-05-07T01:00:23;6.40;;;4.63;;
4652;SDS011;9900;48.738;9.306;2023-05-07T01:02:52;6.43;;;3.90;;
4652;SDS011;9900;48.738;9.306;2023-05-07T01:05:22;10.60;;;4.80;;
4652;SDS011;9900;48.738;9.306;2023-05-07T01:07:52;7.63;;;5.10;;
4652;SDS011;9900;48.738;9.306;2023-05-07T01:10:21;6.30;;;4.80;;
4652;SDS011;9900;48.738;9.306;2023-05-07T01:12:50;11.53;;;4.20;;
4652;SDS011;9900;48.738;9.306;2023-05-07T01:15:20;7.07;;;4.20;;
4652;SDS011;9900;48.738;9.306;2023-05-07T01:17:50;8.03;;;4.40;;
4652;SDS011;9900;48.738;9.306;2023-05-07T01:20:18;11.30;;;4.80;;
4652;SDS011;9900;48.738;9.306;2023-05-07T01:22:49;7.60;;;4.80;;
4652;SDS011;9900;48.738;9.306;2023-05-07T01:25:17;7.40;;;4.37;;
4652;SDS011;9900;48.738;9.306;2023-05-07T01:27:46;8.20;;;4.50;;
4652;SDS011;9900;48.738;9.306;2023-05-07T01:30:15;5.80;;;4.30;;
4652;SDS011;9900;48.738;9.306;2023-05-07T01:32:46;5.57;;;4.47;;
4652;SDS011;9900;48.738;9.306;2023-05-07T01:35:19;9.70;;;4.97;;
4652;SDS011;9900;48.738;9.306;2023-05-07T01:37:50;5.43;;;3.93;;
4652;SDS011;9900;48.738;9.306;2023-05-07T01:40:19;9.10;;;4.70;;
4652;SDS011;9900;48.738;9.306;2023-05-07T01:42:48;6.67;;;3.77;;
4652;SDS011;9900;48.738;9.306;2023-05-07T01:45:17;10.00;;;3.70;;
4652;SDS011;9900;48.738;9.306;2023-05-07T01:47:46;6.80;;;4.20;;
4652;SDS011;9900;48.738;9.306;2023-05-07T01:50:15;11.30;;;4.37;;
4652;SDS011;9900;48.738;9.306;2023-05-07T01:52:44;9.20;;;4.87;;
4652;SDS011;9900;48.738;9.306;2023-05-07T01:55:14;8.50;;;4.60;;
4652;SDS011;9900;48.738;9.306;2023-05-07T01:57:43;6.33;;;3.90;;
4652;SDS011;9900;48.738;9.306;2023-05-07T02:00:12;14.00;;;3.90;;
4652;SDS011;9900;48.738;9.306;2023-05-07T02:02:40;5.93;;;3.70;;
4652;SDS011;9900;48.738;9.306;2023-05-07T02:05:09;6.33;;;4.07;;
4652;SDS011;9900;48.738;9.306;2023-05-07T02:07:38;4.33;;;3.30;;
4652;SDS011;9900;48.738;9.306;2023-05-07T02:10:07;8.57;;;3.80;;
4652;SDS011;9900;48.738;9.306;2023-05-07T02:12:37;7.93;;;4.00;;
4652;SDS011;9900;48.738;9.306;2023-05-07T02:15:07;4.60;;;3.90;;
4652;SDS011;9900;48.738;9.306;2023-05-07T02:17:38;5.37;;;3.50;;
4652;SDS011;9900;48.738;9.306;2023-05-07T02:20:09;7.00;;;3.70;;
4652;SDS011;9900;48.738;9.306;2023-05-07T02:22:40;4.00;;;3.47;;
4652;SDS011;9900;48.738;9.306;2023-05-07T02:25:09;6.83;;;4.77;;
4652;SDS011;9900;48.738;9.306;2023-05-07T02:27:39;5.50;;;4.00;;
4652;SDS011;9900;48.738;9.306;2023-05-07T02:30:08;7.93;;;4.60;;
4652;SDS011;9900;48.738;9.306;2023-05-07T02:32:37;4.73;;;3.90;;
4652;SDS011;9900;48.738;9.306;2023-05-07T02:35:06;5.10;;;4.33;;
4652;SDS011;9900;48.738;9.306;2023-05-07T02:37:36;12.17;;;4.00;;
4652;SDS011;9900;48.738;9.306;2023-05-07T02:40:05;5.80;;;4.10;;
4652;SDS011;9900;48.738;9.306;2023-05-07T02:42:35;6.93;;;4.10;;
4652;SDS011;9900;48.738;9.306;2023-05-07T02:45:06;4.70;;;4.20;;
4652;SDS011;9900;48.738;9.306;2023-05-07T02:47:35;4.33;;;3.80;;
4652;SDS011;9900;48.738;9.306;2023-05-07T02:50:05;5.83;;;3.90;;
4652;SDS011;9900;48.738;9.306;2023-05-07T02:52:35;5.70;;;3.90;;
4652;SDS011;9900;48.738;9.306;2023-05-07T02:55:04;6.50;;;3.83;;
4652;SDS011;9900;48.738;9.306;2023-05-07T02:57:33;7.97;;;4.27;;
4652;SDS011;9900;48.738;9.306;2023-05-07T03:00:11;4.73;;;3.90;;
4652;SDS011;9900;48.738;9.306;2023-05-07T03:02:40;4.00;;;3.60;;
4652;SDS011;9900;48.738;9.306;2023-05-07T03:05:09;5.10;;;4.53;;
4652;SDS011;9900;48.738;9.306;2023-05-07T03:07:39;5.27;;;4.10;;
4652;SDS011;9900;48.738;9.306;2023-05-07T03:10:08;5.20;;;3.53;;
4652;SDS011;9900;48.738;9.306;2023-05-07T03:12:37;4.80;;;3.77;;
4652;SDS011;9900;48.738;9.306;2023-05-07T03:15:06;7.63;;;3.47;;
4652;SDS011;9900;48.738;9.306;2023-05-07T03:17:37;3.87;;;3.47;;
4652;SDS011;9900;48.738;9.306;2023-05-07T03:20:07;3.87;;;3.10;;
4652;SDS011;9900;48.738;9.306;2023-05-07T03:22:37;5.30;;;3.33;;
4652;SDS011;9900;48.738;9.306;2023-05-07T03:25:06;8.07;;;3.73;;
4652;SDS011;9900;48.738;9.306;2023-05-07T03:27:36;11.33;;;4.27;;
4652;SDS011;9900;48.738;9.306;2023-05-07T03:30:06;8.10;;;4.20;;
4652;SDS011;9900;48.738;9.306;2023-05-07T03:32:37;7.23;;;3.87;;
4652;SDS011;9900;48.738;9.306;2023-05-07T03:35:06;9.23;;;3.90;;
4652;SDS011;9900;48.738;9.306;2023-05-07T03:37:35;6.10;;;3.70;;
4652;SDS011;9900;48.738;9.306;2023-05-07T03:40:04;5.73;;;4.07;;
4652;SDS011;9900;48.738;9.306;2023-05-07T03:42:33;7.60;;;3.90;;
4652;SDS011;9900;48.738;9.306;2023-05-07T03:45:02;8.73;;;3.50;;
4652;SDS011;9900;48.738;9.306;2023-05-07T03:47:31;6.70;;;4.07;;
4652;SDS011;9900;48.738;9.306;2023-05-07T03:50:01;8.93;;;3.80;;
4652;SDS011;9900;48.738;9.306;2023-05-07T03:52:30;5.90;;;3.47;;
4652;SDS011;9900;48.738;9.306;2023-05-07T03:54:59;7.30;;;3.27;;
4652;SDS011;9900;48.738;9.306;2023-05-07T03:57:27;6.27;;;3.40;;
4652;SDS011;9900;48.738;9.306;2023-05-07T03:59:56;5.07;;;3.37;;
4652;SDS011;9900;48.738;9.306;2023-05-07T04:02:25;3.57;;;3.20;;
4652;SDS011;9900;48.738;9.306;2023-05-07T04:04:53;3.80;;;3.40;;
4652;SDS011;9900;48.738;9.306;2023-05-07T04:07:23;7.93;;;3.50;;
4652;SDS011;9900;48.738;9.306;2023-05-07T04:09:52;10.93;;;3.20;;
4652;SDS011;9900;48.738;9.306;2023-05-07T04:12:21;14.73;;;3.50;;
4652;SDS011;9900;48.738;9.306;2023-05-07T04:14:49;3.97;;;3.53;;
4652;SDS011;9900;48.738;9.306;2023-05-07T04:17:18;5.30;;;3.10;;
4652;SDS011;9900;48.738;9.306;2023-05-07T04:19:47;5.60;;;3.87;;
4652;SDS011;9900;48.738;9.306;2023-05-07T04:22:15;6.87;;;3.20;;
4652;SDS011;9900;48.738;9.306;2023-05-07T04:24:45;6.60;;;3.33;;
4652;SDS011;9900;48.738;9.306;2023-05-07T04:27:14;7.53;;;3.03;;
4652;SDS011;9900;48.738;9.306;2023-05-07T04:29:42;5.27;;;3.70;;
4652;SDS011;9900;48.738;9.306;2023-05-07T04:32:14;5.50;;;3.50;;
4652;SDS011;9900;48.738;9.306;2023-05-07T04:34:43;7.00;;;3.60;;
4652;SDS011;9900;48.738;9.306;2023-05-07T04:37:11;4.67;;;3.77;;
4652;SDS011;9900;48.738;9.306;2023-05-07T04:39:40;7.97;;;3.73;;
4652;SDS011;9900;48.738;9.306;2023-05-07T04:42:13;4.60;;;3.50;;
4652;SDS011;9900;48.738;9.306;2023-05-07T04:44:42;6.57;;;3.67;;
4652;SDS011;9900;48.738;9.306;2023-05-07T04:47:11;5.43;;;3.50;;
4652;SDS011;9900;48.738;9.306;2023-05-07T04:49:40;4.70;;;3.00;;
4652;SDS011;9900;48.738;9.306;2023-05-07T04:52:09;6.33;;;3.40;;
4652;SDS011;9900;48.738;9.306;2023-05-07T04:54:38;4.40;;;3.20;;
4652;SDS011;9900;48.738;9.306;2023-05-07T04:57:06;8.73;;;3.77;;
4652;SDS011;9900;48.738;9.306;2023-05-07T04:59:36;4.53;;;3.30;;
4652;SDS011;9900;48.738;9.306;2023-05-07T05:02:05;6.37;;;3.23;;
4652;SDS011;9900;48.738;9.306;2023-05-07T05:04:34;4.53;;;3.23;;
4652;SDS011;9900;48.738;9.306;2023-05-07T05:07:02;6.97;;;3.53;;
4652;SDS011;9900;48.738;9.306;2023-05-07T05:09:31;5.90;;;3.60;;
4652;SDS011;9900;48.738;9.306;2023-05-07T05:12:00;5.93;;;3.37;;
4652;SDS011;9900;48.738;9.306;2023-05-07T05:14:28;4.57;;;3.43;;
4652;SDS011;9900;48.738;9.306;2023-05-07T05:16:58;4.30;;;3.00;;
4652;SDS011;9900;48.738;9.306;2023-05-07T05:19:27;5.50;;;3.70;;
4652;SDS011;9900;48.738;9.306;2023-05-07T05:21:56;4.53;;;3.10;;
4652;SDS011;9900;48.738;9.306;2023-05-07T05:24:24;6.03;;;3.40;;
4652;SDS011;9900;48.738;9.306;2023-05-07T05:26:53;2.90;;;2.57;;
4652;SDS011;9900;48.738;9.306;2023-05-07T05:29:22;3.70;;;3.40;;
4652;SDS011;9900;48.738;9.306;2023-05-07T05:31:50;7.73;;;3.70;;
4652;SDS011;9900;48.738;9.306;2023-05-07T05:34:20;5.57;;;3.47;;
4652;SDS011;9900;48.738;9.306;2023-05-07T05:36:49;7.83;;;3.60;;
4652;SDS011;9900;48.738;9.306;2023-05-07T05:39:18;3.50;;;3.20;;
4652;SDS011;9900;48.738;9.306;2023-05-07T05:41:46;8.97;;;3.60;;
4652;SDS011;9900;48.738;9.306;2023-05-07T05:44:15;3.63;;;3.33;;
4652;SDS011;9900;48.738;9.306;2023-05-07T05:46:44;3.57;;;3.00;;
4652;SDS011;9900;48.738;9.306;2023-05-07T05:49:12;7.63;;;4.00;;
4652;SDS011;9900;48.738;9.306;2023-05-07T05:51:42;6.20;;;3.70;;
4652;SDS011;9900;48.738;9.306;2023-05-07T05:54:11;7.93;;;3.97;;
4652;SDS011;9900;48.738;9.306;2023-05-07T05:56:40;6.47;;;4.00;;
4652;SDS011;9900;48.738;9.306;2023-05-07T05:59:10;4.57;;;3.80;;
4652;SDS011;9900;48.738;9.306;2023-05-07T06:01:38;6.67;;;3.80;;
4652;SDS011;9900;48.738;9.306;2023-05-07T06:04:07;4.17;;;3.70;;
4652;SDS011;9900;48.738;9.306;2023-05-07T06:06:36;5.93;;;4.00;;
4652;SDS011;9900;48.738;9.306;2023-05-07T06:09:06;5.43;;;3.33;;
4652;SDS011;9900;48.738;9.306;2023-05-07T06:11:34;4.97;;;3.77;;
4652;SDS011;9900;48.738;9.306;2023-05-07T06:14:03;3.83;;;3.43;;
4652;SDS011;9900;48.738;9.306;2023-05-07T06:16:32;7.13;;;3.37;;
4652;SDS011;9900;48.738;9.306;2023-05-07T06:19:00;5.63;;;3.60;;
4652;SDS011;9900;48.738;9.306;2023-05-07T06:21:29;5.90;;;3.70;;
4652;SDS011;9900;48.738;9.306;2023-05-07T06:23:58;3.53;;;3.30;;
4652;SDS011;9900;48.738;9.306;2023-05-07T06:26:28;3.87;;;3.33;;
4652;SDS011;9900;48.738;9.306;2023-05-07T06:28:56;5.70;;;3.33;;
4652;SDS011;9900;48.738;9.306;2023-05-07T06:31:28;3.43;;;3.07;;
4652;SDS011;9900;48.738;9.306;2023-05-07T06:33:57;4.00;;;2.90;;
4652;SDS011;9900;48.738;9.306;2023-05-07T06:36:27;3.63;;;3.10;;
4652;SDS011;9900;48.738;9.306;2023-05-07T06:38:55;10.00;;;3.10;;
4652;SDS011;9900;48.738;9.306;2023-05-07T06:41:24;3.43;;;2.37;;
4652;SDS011;9900;48.738;9.306;2023-05-07T06:43:54;5.00;;;3.43;;
4652;SDS011;9900;48.738;9.306;2023-05-07T06:46:23;3.73;;;2.70;;
4652;SDS011;9900;48.738;9.306;2023-05-07T06:48:52;3.87;;;3.27;;
4652;SDS011;9900;48.738;9.306;2023-05-07T06:51:21;5.80;;;2.80;;
4652;SDS011;9900;48.738;9.306;2023-05-07T06:53:50;3.70;;;2.67;;
4652;SDS011;9900;48.738;9.306;2023-05-07T06:56:18;2.80;;;2.50;;
4652;SDS011;9900;48.738;9.306;2023-05-07T06:58:48;3.67;;;2.73;;
4652;SDS011;9900;48.738;9.306;2023-05-07T07:01:18;4.53;;;2.60;;
4652;SDS011;9900;48.738;9.306;2023-05-07T07:03:47;3.80;;;2.90;;
4652;SDS011;9900;48.738;9.306;2023-05-07T07:06:15;2.87;;;2.53;;
4652;SDS011;9900;48.738;9.306;2023-05-07T07:08:44;2.93;;;2.47;;
4652;SDS011;9900;48.738;9.306;2023-05-07T07:11:13;3.77;;;3.30;;
4652;SDS011;9900;48.738;9.306;2023-05-07T07:13:41;5.63;;;2.87;;
4652;SDS011;9900;48.738;9.306;2023-05-07T07:16:10;3.30;;;2.40;;
4652;SDS011;9900;48.738;9.306;2023-05-07T07:18:40;9.57;;;3.20;;
4652;SDS011;9900;48.738;9.306;2023-05-07T07:21:09;2.57;;;2.37;;
4652;SDS011;9900;48.738;9.306;2023-05-07T07:23:37;2.97;;;2.67;;
4652;SDS011;9900;48.738;9.306;2023-05-07T07:26:06;2.63;;;2.27;;
4652;SDS011;9900;48.738;9.306;2023-05-07T07:28:35;4.23;;;3.00;;
4652;SDS011;9900;48.738;9.306;2023-05-07T07:31:03;6.30;;;3.23;;
4652;SDS011;9900;48.738;9.306;2023-05-07T07:33:32;3.83;;;2.77;;
4652;SDS011;9900;48.738;9.306;2023-05-07T07:36:02;3.53;;;2.17;;
4652;SDS011;9900;48.738;9.306;2023-05-07T07:38:32;6.00;;;2.30;;
4652;SDS011;9900;48.738;9.306;2023-05-07T07:41:01;3.43;;;2.60;;
4652;SDS011;9900;48.738;9.306;2023-05-07T07:43:30;2.80;;;2.60;;
4652;SDS011;9900;48.738;9.306;2023-05-07T07:45:58;2.63;;;2.20;;
4652;SDS011;9900;48.738;9.306;2023-05-07T07:48:27;2.73;;;2.50;;
4652;SDS011;9900;48.738;9.306;2023-05-07T07:50:55;3.37;;;2.37;;
4652;SDS011;9900;48.738;9.306;2023-05-07T07:53:26;5.83;;;2.60;;
4652;SDS011;9900;48.738;9.306;2023-05-07T07:55:54;3.73;;;2.20;;
4652;SDS011;9900;48.738;9.306;2023-05-07T07:58:25;2.67;;;2.47;;
4652;SDS011;9900;48.738;9.306;2023-05-07T08:00:54;6.00;;;2.63;;
4652;SDS011;9900;48.738;9.306;2023-05-07T08:03:23;3.20;;;2.00;;
4652;SDS011;9900;48.738;9.306;2023-05-07T08:05:52;2.40;;;1.70;;
4652;SDS011;9900;48.738;9.306;2023-05-07T08:08:21;4.47;;;2.37;;
4652;SDS011;9900;48.738;9.306;2023-05-07T08:10:51;3.00;;;2.60;;
4652;SDS011;9900;48.738;9.306;2023-05-07T08:13:19;3.20;;;2.73;;
4652;SDS011;9900;48.738;9.306;2023-05-07T08:15:48;3.47;;;2.37;;
4652;SDS011;9900;48.738;9.306;2023-05-07T08:18:17;6.40;;;2.80;;
4652;SDS011;9900;48.738;9.306;2023-05-07T08:20:46;2.30;;;2.10;;
4652;SDS011;9900;48.738;9.306;2023-05-07T08:23:14;2.73;;;1.70;;
4652;SDS011;9900;48.738;9.306;2023-05-07T08:25:43;2.60;;;2.07;;
4652;SDS011;9900;48.738;9.306;2023-05-07T08:28:13;4.90;;;2.47;;
4652;SDS011;9900;48.738;9.306;2023-05-07T08:30:42;2.10;;;1.90;;
4652;SDS011;9900;48.738;9.306;2023-05-07T08:33:11;1.90;;;1.80;;
4652;SDS011;9900;48.738;9.306;2023-05-07T08:35:39;3.07;;;2.30;;
4652;SDS011;9900;48.738;9.306;2023-05-07T08:38:08;2.50;;;2.17;;
4652;SDS011;9900;48.738;9.306;2023-05-07T08:40:37;2.33;;;1.93;;
4652;SDS011;9900;48.738;9.306;2023-05-07T08:43:08;5.33;;;2.43;;
4652;SDS011;9900;48.738;9.306;2023-05-07T08:45:38;2.40;;;2.20;;
4652;SDS011;9900;48.738;9.306;2023-05-07T08:48:08;6.33;;;1.77;;
4652;SDS011;9900;48.738;9.306;2023-05-07T08:50:38;2.70;;;2.20;;
4652;SDS011;9900;48.738;9.306;2023-05-07T08:53:07;2.90;;;1.77;;
4652;SDS011;9900;48.738;9.306;2023-05-07T08:55:35;2.10;;;2.00;;
4652;SDS011;9900;48.738;9.306;2023-05-07T08:58:04;2.40;;;2.20;;
4652;SDS011;9900;48.738;9.306;2023-05-07T09:00:33;2.87;;;2.50;;
4652;SDS011;9900;48.738;9.306;2023-05-07T09:03:03;3.60;;;1.70;;
4652;SDS011;9900;48.738;9.306;2023-05-07T09:05:32;3.40;;;1.97;;
4652;SDS011;9900;48.738;9.306;2023-05-07T09:08:01;2.10;;;1.90;;
4652;SDS011;9900;48.738;9.306;2023-05-07T09:10:31;2.20;;;1.53;;
4652;SDS011;9900;48.738;9.306;2023-05-07T09:13:02;3.87;;;2.13;;
4652;SDS011;9900;48.738;9.306;2023-05-07T09:15:31;4.33;;;2.50;;
4652;SDS011;9900;48.738;9.306;2023-05-07T09:18:00;4.63;;;4.23;;
4652;SDS011;9900;48.738;9.306;2023-05-07T09:20:31;3.27;;;1.87;;
4652;SDS011;9900;48.738;9.306;2023-05-07T09:22:59;2.30;;;1.73;;
4652;SDS011;9900;48.738;9.306;2023-05-07T09:25:29;6.60;;;1.90;;
4652;SDS011;9900;48.738;9.306;2023-05-07T09:27:58;3.37;;;1.80;;
4652;SDS011;9900;48.738;9.306;2023-05-07T09:30:27;3.33;;;1.90;;
4652;SDS011;9900;48.738;9.306;2023-05-07T09:32:57;2.57;;;1.67;;
4652;SDS011;9900;48.738;9.306;2023-05-07T09:35:27;4.87;;;2.33;;
4652;SDS011;9900;48.738;9.306;2023-05-07T09:37:58;4.57;;;2.10;;
4652;SDS011;9900;48.738;9.306;2023-05-07T09:40:30;2.80;;;1.97;;
4652;SDS011;9900;48.738;9.306;2023-05-07T09:43:08;3.80;;;1.90;;
4652;SDS011;9900;48.738;9.306;2023-05-07T09:45:37;3.93;;;1.70;;
4652;SDS011;9900;48.738;9.306;2023-05-07T09:48:06;3.27;;;1.90;;
4652;SDS011;9900;48.738;9.306;2023-05-07T09:50:36;2.30;;;1.90;;
4652;SDS011;9900;48.738;9.306;2023-05-07T09:53:07;1.77;;;1.60;;
4652;SDS011;9900;48.738;9.306;2023-05-07T09:55:38;2.17;;;1.57;;
4652;SDS011;9900;48.738;9.306;2023-05-07T09:58:07;7.40;;;2.30;;
4652;SDS011;9900;48.738;9.306;2023-05-07T10:00:36;4.40;;;1.60;;
4652;SDS011;9900;48.738;9.306;2023-05-07T10:03:06;1.40;;;1.30;;
4652;SDS011;9900;48.738;9.306;2023-05-07T10:05:36;1.70;;;1.60;;
4652;SDS011;9900;48.738;9.306;2023-05-07T10:08:07;1.83;;;1.53;;
4652;SDS011;9900;48.738;9.306;2023-05-07T10:10:36;1.90;;;1.53;;
4652;SDS011;9900;48.738;9.306;2023-05-07T10:13:05;2.90;;;2.37;;
4652;SDS011;9900;48.738;9.306;2023-05-07T10:15:37;5.83;;;2.00;;
4652;SDS011;9900;48.738;9.306;2023-05-07T10:18:06;3.23;;;1.70;;
4652;SDS011;9900;48.738;9.306;2023-05-07T10:20:36;2.33;;;1.80;;
4652;SDS011;9900;48.738;9.306;2023-05-07T10:23:04;3.67;;;2.13;;
4652;SDS011;9900;48.738;9.306;2023-05-07T10:25:35;2.70;;;1.90;;
4652;SDS011;9900;48.738;9.306;2023-05-07T10:28:04;3.73;;;1.90;;
4652;SDS011;9900;48.738;9.306;2023-05-07T10:30:37;2.00;;;1.80;;
4652;SDS011;9900;48.738;9.306;2023-05-07T10:33:17;3.43;;;1.53;;
4652;SDS011;9900;48.738;9.306;2023-05-07T10:35:48;2.00;;;1.63;;
4652;SDS011;9900;48.738;9.306;2023-05-07T10:38:18;2.23;;;1.60;;
4652;SDS011;9900;48.738;9.306;2023-05-07T10:40:47;4.50;;;1.90;;
4652;SDS011;9900;48.738;9.306;2023-05-07T10:43:16;1.43;;;1.33;;
4652;SDS011;9900;48.738;9.306;2023-05-07T10:45:49;2.13;;;1.47;;
4652;SDS011;9900;48.738;9.306;2023-05-07T10:51:38;4.67;;;2.03;;
4652;SDS011;9900;48.738;9.306;2023-05-07T10:54:21;1.83;;;1.50;;
4652;SDS011;9900;48.738;9.306;2023-05-07T10:56:52;3.27;;;1.33;;
4652;SDS011;9900;48.738;9.306;2023-05-07T10:59:30;3.00;;;1.50;;
4652;SDS011;9900;48.738;9.306;2023-05-07T11:02:08;1.80;;;1.40;;
4652;SDS011;9900;48.738;9.306;2023-05-07T11:04:38;1.90;;;1.40;;
4652;SDS011;9900;48.738;9.306;2023-05-07T11:07:23;3.67;;;2.10;;
4652;SDS011;9900;48.738;9.306;2023-05-07T11:10:04;2.13;;;1.50;;
4652;SDS011;9900;48.738;9.306;2023-05-07T11:12:51;2.47;;;1.50;;
4652;SDS011;9900;48.738;9.306;2023-05-07T11:15:44;3.53;;;2.23;;
4652;SDS011;9900;48.738;9.306;2023-05-07T11:18:14;4.00;;;1.80;;
4652;SDS011;9900;48.738;9.306;2023-05-07T11:26:42;3.40;;;1.77;;
4652;SDS011;9900;48.738;9.306;2023-05-07T11:29:13;2.43;;;1.70;;
4652;SDS011;9900;48.738;9.306;2023-05-07T11:31:50;2.00;;;1.90;;
4652;SDS011;9900;48.738;9.306;2023-05-07T11:34:20;1.40;;;1.30;;
4652;SDS011;9900;48.738;9.306;2023-05-07T11:36:50;1.40;;;1.30;;
4652;SDS011;9900;48.738;9.306;2023-05-07T11:39:26;4.17;;;1.50;;
4652;SDS011;9900;48.738;9.306;2023-05-07T11:41:57;3.63;;;1.77;;
4652;SDS011;9900;48.738;9.306;2023-05-07T11:44:39;1.33;;;1.23;;
4652;SDS011;9900;48.738;9.306;2023-05-07T11:47:09;2.27;;;1.70;;
4652;SDS011;9900;48.738;9.306;2023-05-07T11:49:38;3.20;;;1.50;;
4652;SDS011;9900;48.738;9.306;2023-05-07T11:52:07;3.03;;;1.70;;
4652;SDS011;9900;48.738;9.306;2023-05-07T11:54:36;1.50;;;1.40;;
4652;SDS011;9900;48.738;9.306;2023-05-07T11:57:06;3.77;;;1.30;;
4652;SDS011;9900;48.738;9.306;2023-05-07T11:59:38;3.00;;;1.53;;
4652;SDS011;9900;48.738;9.306;2023-05-07T12:02:08;1.80;;;1.37;;
4652;SDS011;9900;48.738;9.306;2023-05-07T12:04:37;3.50;;;1.53;;
4652;SDS011;9900;48.738;9.306;2023-05-07T12:07:10;1.77;;;1.57;;
4652;SDS011;9900;48.738;9.306;2023-05-07T12:09:39;1.63;;;1.37;;
4652;SDS011;9900;48.738;9.306;2023-05-07T12:12:10;2.63;;;1.60;;
4652;SDS011;9900;48.738;9.306;2023-05-07T12:14:39;2.50;;;1.33;;
4652;SDS011;9900;48.738;9.306;2023-05-07T12:17:08;1.30;;;1.20;;
4652;SDS011;9900;48.738;9.306;2023-05-07T12:19:37;2.13;;;1.67;;
4652;SDS011;9900;48.738;9.306;2023-05-07T12:22:07;2.10;;;1.90;;
4652;SDS011;9900;48.738;9.306;2023-05-07T12:24:43;1.40;;;1.30;;
4652;SDS011;9900;48.738;9.306;2023-05-07T12:27:14;1.73;;;1.40;;
4652;SDS011;9900;48.738;9.306;2023-05-07T12:29:44;1.47;;;1.37;;
4652;SDS011;9900;48.738;9.306;2023-05-07T12:32:13;3.93;;;1.80;;
4652;SDS011;9900;48.738;9.306;2023-05-07T12:34:43;3.97;;;1.40;;
4652;SDS011;9900;48.738;9.306;2023-05-07T12:37:12;4.70;;;1.40;;
4652;SDS011;9900;48.738;9.306;2023-05-07T12:39:44;3.13;;;1.70;;
4652;SDS011;9900;48.738;9.306;2023-05-07T12:42:15;3.07;;;1.50;;
4652;SDS011;9900;48.738;9.306;2023-05-07T12:44:45;3.70;;;1.80;;
4652;SDS011;9900;48.738;9.306;2023-05-07T12:47:14;1.93;;;1.73;;
4652;SDS011;9900;48.738;9.306;2023-05-07T12:49:43;3.13;;;1.30;;
4652;SDS011;9900;48.738;9.306;2023-05-07T12:52:13;6.10;;;1.90;;
4652;SDS011;9900;48.738;9.306;2023-05-07T12:54:42;3.40;;;1.77;;
4652;SDS011;9900;48.738;9.306;2023-05-07T12:57:12;2.60;;;1.57;;
4652;SDS011;9900;48.738;9.306;2023-05-07T12:59:42;3.60;;;1.97;;
4652;SDS011;9900;48.738;9.306;2023-05-07T13:02:11;4.10;;;2.00;;
4652;SDS011;9900;48.738;9.306;2023-05-07T13:04:39;3.77;;;2.03;;
4652;SDS011;9900;48.738;9.306;2023-05-07T13:07:08;11.80;;;3.43;;
4652;SDS011;9900;48.738;9.306;2023-05-07T13:09:37;15.60;;;4.73;;
4652;SDS011;9900;48.738;9.306;2023-05-07T13:12:05;14.83;;;3.80;;
4652;SDS011;9900;48.738;9.306;2023-05-07T13:14:34;12.40;;;3.43;;
4652;SDS011;9900;48.738;9.306;2023-05-07T13:17:04;3.00;;;2.17;;
4652;SDS011;9900;48.738;9.306;2023-05-07T13:19:33;11.07;;;3.00;;
4652;SDS011;9900;48.738;9.306;2023-05-07T13:22:01;15.40;;;3.43;;
4652;SDS011;9900;48.738;9.306;2023-05-07T13:24:30;14.50;;;3.90;;
4652;SDS011;9900;48.738;9.306;2023-05-07T13:26:59;7.67;;;3.20;;
4652;SDS011;9900;48.738;9.306;2023-05-07T13:29:27;7.20;;;3.40;;
4652;SDS011;9900;48.738;9.306;2023-05-07T13:31:57;5.13;;;3.03;;
4652;SDS011;9900;48.738;9.306;2023-05-07T13:34:27;5.40;;;2.90;;
4652;SDS011;9900;48.738;9.306;2023-05-07T13:36:56;10.63;;;3.63;;
4652;SDS011;9900;48.738;9.306;2023-05-07T13:39:25;6.50;;;3.23;;
4652;SDS011;9900;48.738;9.306;2023-05-07T13:41:53;8.50;;;2.50;;
4652;SDS011;9900;48.738;9.306;2023-05-07T13:44:22;5.60;;;2.40;;
4652;SDS011;9900;48.738;9.306;2023-05-07T13:46:51;9.63;;;2.50;;
4652;SDS011;9900;48.738;9.306;2023-05-07T13:49:20;5.50;;;2.50;;
4652;SDS011;9900;48.738;9.306;2023-05-07T13:51:50;5.80;;;2.33;;
4652;SDS011;9900;48.738;9.306;2023-05-07T13:54:18;9.73;;;1.93;;
4652;SDS011;9900;48.738;9.306;2023-05-07T13:56:48;8.67;;;2.23;;
4652;SDS011;9900;48.738;9.306;2023-05-07T13:59:16;3.73;;;2.30;;
4652;SDS011;9900;48.738;9.306;2023-05-07T14:01:45;7.67;;;2.40;;
4652;SDS011;9900;48.738;9.306;2023-05-07T14:04:14;8.33;;;2.30;;
4652;SDS011;9900;48.738;9.306;2023-05-07T14:06:43;3.03;;;2.10;;
4652;SDS011;9900;48.738;9.306;2023-05-07T14:09:13;5.90;;;2.00;;
4652;SDS011;9900;48.738;9.306;2023-05-07T14:11:41;5.50;;;1.80;;
4652;SDS011;9900;48.738;9.306;2023-05-07T14:14:10;4.00;;;1.73;;
4652;SDS011;9900;48.738;9.306;2023-05-07T14:16:39;4.17;;;1.80;;
4652;SDS011;9900;48.738;9.306;2023-05-07T14:19:07;5.93;;;2.17;;
4652;SDS011;9900;48.738;9.306;2023-05-07T14:21:36;4.60;;;2.20;;
4652;SDS011;9900;48.738;9.306;2023-05-07T14:24:06;7.90;;;2.27;;
4652;SDS011;9900;48.738;9.306;2023-05-07T14:26:36;4.63;;;2.30;;
4652;SDS011;9900;48.738;9.306;2023-05-07T14:29:05;4.37;;;2.40;;
4652;SDS011;9900;48.738;9.306;2023-05-07T14:31:34;4.60;;;2.73;;
4652;SDS011;9900;48.738;9.306;2023-05-07T14:34:03;5.57;;;2.57;;
4652;SDS011;9900;48.738;9.306;2023-05-07T14:36:31;6.57;;;2.40;;
4652;SDS011;9900;48.738;9.306;2023-05-07T14:39:00;4.70;;;2.50;;
4652;SDS011;9900;48.738;9.306;2023-05-07T14:41:29;5.10;;;2.60;;
4652;SDS011;9900;48.738;9.306;2023-05-07T14:44:00;5.77;;;1.93;;
4652;SDS011;9900;48.738;9.306;2023-05-07T14:46:31;3.10;;;1.97;;
4652;SDS011;9900;48.738;9.306;2023-05-07T14:48:59;2.67;;;1.83;;
4652;SDS011;9900;48.738;9.306;2023-05-07T14:51:28;3.97;;;1.60;;
4652;SDS011;9900;48.738;9.306;2023-05-07T14:53:58;5.13;;;2.70;;
4652;SDS011;9900;48.738;9.306;2023-05-07T14:56:27;4.87;;;1.90;;
4652;SDS011;9900;48.738;9.306;2023-05-07T14:58:56;5.50;;;1.83;;
4652;SDS011;9900;48.738;9.306;2023-05-07T15:01:26;4.17;;;2.50;;
4652;SDS011;9900;48.738;9.306;2023-05-07T15:03:55;3.80;;;2.37;;
4652;SDS011;9900;48.738;9.306;2023-05-07T15:06:24;3.60;;;2.20;;
4652;SDS011;9900;48.738;9.306;2023-05-07T15:08:53;5.17;;;2.13;;
4652;SDS011;9900;48.738;9.306;2023-05-07T15:11:22;4.53;;;2.60;;
4652;SDS011;9900;48.738;9.306;2023-05-07T15:13:51;5.70;;;2.50;;
4652;SDS011;9900;48.738;9.306;2023-05-07T15:16:20;5.13;;;2.23;;
4652;SDS011;9900;48.738;9.306;2023-05-07T15:18:50;4.40;;;2.40;;
4652;SDS011;9900;48.738;9.306;2023-05-07T15:21:18;7.30;;;2.60;;
4652;SDS011;9900;48.738;9.306;2023-05-07T15:23:47;6.73;;;2.20;;
4652;SDS011;9900;48.738;9.306;2023-05-07T15:26:15;6.97;;;3.00;;
4652;SDS011;9900;48.738;9.306;2023-05-07T15:28:44;5.40;;;3.13;;
4652;SDS011;9900;48.738;9.306;2023-05-07T15:31:13;5.87;;;3.20;;
4652;SDS011;9900;48.738;9.306;2023-05-07T15:33:42;6.03;;;3.30;;
4652;SDS011;9900;48.738;9.306;2023-05-07T15:36:13;5.20;;;2.90;;
4652;SDS011;9900;48.738;9.306;2023-05-07T15:38:41;6.00;;;3.30;;